Springfield, MO

5:59 PM CST on November 22, 2014 (GMT -0600)
Springfield-Branson Regional | Change Station
CLOSE
Current Station
Airport
Location: Springfield,
Elevation: 1280 ft
Nearby Weather Stations

Elev 1280 ft 37.24 °N, 93.39 °W | Updated 7 minutes ago

Scattered Clouds
Scattered Clouds
53 °F
Feels Like 53 °F
N
15
Wind Variable Wind from SSE

Today
High -- | Low -- °F
--% Chance of Precip.
Yesterday
High -- | Low -- °F
Precip. -- in
6:59 AM 4:59 PM
New Moon, 0% visible
Pressure 29.86 in
Visibility 10.0 miles
Clouds Scattered Clouds 700 ft
Dew Point 50 °F
Humidity 89%
Rainfall 0.12 in
Snow Depth Not available.
UV 0 out of 12
Pollen 1.50 out of 12
Air Quality Not available.
Flu Activity Not available.
METAR KSGF 222352Z 16013KT 10SM SCT007 12/10 A2986 RMK AO2 SLP112 60011 T01170100 10139 20117 58017

More Conditions Fewer Conditions

Pressure 29.86 in
Visibility 10.0 miles
Clouds Scattered Clouds 700 ft
Dew Point 50 °F
Humidity 89%
Rainfall 0.12 in
Snow Depth Not available.
UV 0 out of 12
Pollen 1.50 out of 12
Air Quality Not available.
Flu Activity Not available.
METAR KSGF 222352Z 16013KT 10SM SCT007 12/10 A2986 RMK AO2 SLP112 60011 T01170100 10139 20117 58017

More Conditions Fewer Conditions

10-Day Weather Forecast

Almanac

Astronomy

Nov. 22, 2014 Rise Set
Actual Time
Civil Twilight
Nautical Twilight
Astronomical Twilight
Moon
Length of Visible Light
Length of Day
Tomorrow will be .
, % of the Moon is Illuminated

Today's Extremes

State Highs State Lows

Community

WunderPhotos

Upload Photos

1,772,928 photos uploaded!

WunderBlogs® & News

Nearby

Air Quality

  Air Quality AQ Index Pollutant
Not available.

Snow Depth

Station Depth Elevation

Earthquake Activity

City Distance Mag. Time & Date
Minimum magnitude displayed is 2.5.

Coastal Water Temperatures

Place Temperature

Nearby Weather Stations